Labelle, Idaho
Current Conditions -  °F | °C
As of 3:53 PM on Wednesday 26 Nov 2014 (Local Time) from KRXE Reporting Station
Clear Clear  
Wind Chill: 42°   Ceiling: Unl
Heat Index: 47°   Visibility: 10mi
Dew Point: 37°   Wind: 12mph
Humidity: 68%   Direction: 210°SSW
Pressure: 30.26"   Gusts: NA
Location:  43.6749°N, 111.89°W
Report Text: KRXE 262253Z AUTO 21010KT 10SM CLR 08/03 A3026 RMK AO2 SLP249 T00830028
Loading
Personal Weather Stations






























Interactive Weather Map New forecast layout! Learn more

10-Day Weather Forecast

Advertisements
Track Severe Weather on mobile